createdAt,value
2022-12-31T00:01:23.722Z,0.20
2022-12-31T00:03:51.261Z,0.20
2022-12-31T00:06:23.277Z,0.17
2022-12-31T00:08:51.264Z,0.13
2022-12-31T00:11:17.981Z,0.10
2022-12-31T00:13:46.692Z,0.20
2022-12-31T00:16:44.315Z,0.20
2022-12-31T00:19:12.324Z,0.10
2022-12-31T00:21:39.786Z,0.20
2022-12-31T00:24:07.499Z,0.20
2022-12-31T00:26:35.128Z,0.13
2022-12-31T00:29:02.741Z,0.20
2022-12-31T00:31:34.681Z,0.25
2022-12-31T00:34:02.086Z,0.22
2022-12-31T00:36:35.003Z,0.13
2022-12-31T00:39:04.031Z,0.17
2022-12-31T00:41:32.016Z,0.30
2022-12-31T00:43:58.950Z,0.25
2022-12-31T00:46:26.166Z,0.20
2022-12-31T00:48:53.331Z,0.17
2022-12-31T00:51:22.888Z,0.20
2022-12-31T00:53:49.786Z,0.10
2022-12-31T00:56:19.772Z,0.10
2022-12-31T00:58:46.614Z,0.17
2022-12-31T01:01:20.235Z,0.17
2022-12-31T01:03:48.772Z,0.30
2022-12-31T01:06:16.163Z,0.20
2022-12-31T01:08:42.892Z,0.20
2022-12-31T01:11:24.504Z,0.20
2022-12-31T01:13:55.739Z,0.20
2022-12-31T01:16:31.093Z,0.20
2022-12-31T01:19:00.046Z,0.30
2022-12-31T01:21:27.962Z,0.20
2022-12-31T01:23:54.819Z,0.20
2022-12-31T01:26:21.756Z,0.38
2022-12-31T01:28:48.432Z,0.20
2022-12-31T01:31:17.998Z,0.63
2022-12-31T01:33:45.491Z,0.30
2022-12-31T01:36:16.852Z,0.30
2022-12-31T01:38:45.739Z,0.30
2022-12-31T01:41:19.845Z,0.22
2022-12-31T01:43:48.256Z,0.20
2022-12-31T01:46:44.324Z,0.30
2022-12-31T01:49:19.306Z,0.30
2022-12-31T01:51:57.475Z,0.30
2022-12-31T01:54:25.916Z,0.30
2022-12-31T01:56:55.298Z,0.40
2022-12-31T01:59:25.246Z,0.20
2022-12-31T02:01:54.857Z,0.40
2022-12-31T02:04:23.965Z,0.35
2022-12-31T02:06:56.296Z,0.45
2022-12-31T02:11:49.637Z,0.30
2022-12-31T02:14:24.330Z,0.60
2022-12-31T02:17:16.068Z,0.40
2022-12-31T02:20:20.441Z,0.40
2022-12-31T02:23:08.903Z,0.50
2022-12-31T02:26:00.258Z,0.38
2022-12-31T02:29:04.522Z,0.30
2022-12-31T02:31:53.951Z,0.35
2022-12-31T02:34:38.025Z,0.30
2022-12-31T02:37:10.721Z,0.30
2022-12-31T02:39:38.019Z,0.50
2022-12-31T02:42:04.707Z,0.60
2022-12-31T02:44:36.244Z,0.40
2022-12-31T02:47:09.817Z,0.47
2022-12-31T02:49:49.868Z,0.50
2022-12-31T02:52:22.007Z,0.32
2022-12-31T02:54:54.369Z,0.20
2022-12-31T02:57:47.858Z,0.50
2022-12-31T03:00:36.257Z,0.50
2022-12-31T03:03:04.684Z,0.80
2022-12-31T03:05:36.460Z,0.50
2022-12-31T03:08:03.509Z,0.50
2022-12-31T03:10:30.168Z,0.60
2022-12-31T03:12:57.082Z,0.40
2022-12-31T03:15:27.255Z,0.50
2022-12-31T03:18:02.629Z,0.50
2022-12-31T03:20:49.797Z,0.55
2022-12-31T03:23:39.167Z,0.50
2022-12-31T03:26:10.814Z,0.70
2022-12-31T03:28:42.981Z,0.63
2022-12-31T03:33:40.300Z,0.45
2022-12-31T03:36:10.752Z,0.35
2022-12-31T03:38:37.669Z,0.30
2022-12-31T03:41:04.456Z,0.40
2022-12-31T03:43:31.101Z,0.50
2022-12-31T03:45:59.881Z,0.40
2022-12-31T03:48:26.736Z,0.50
2022-12-31T03:50:53.468Z,0.50
2022-12-31T03:53:20.208Z,0.45
2022-12-31T03:55:51.964Z,0.40
2022-12-31T03:58:18.667Z,0.65
2022-12-31T04:00:45.428Z,0.47
2022-12-31T04:03:12.173Z,0.60
2022-12-31T04:05:39.034Z,0.60
2022-12-31T04:08:05.678Z,0.32
2022-12-31T04:10:32.353Z,0.57
2022-12-31T04:13:01.612Z,0.50
2022-12-31T04:15:28.238Z,0.50
2022-12-31T04:17:54.886Z,0.40
2022-12-31T04:20:21.608Z,0.40
2022-12-31T04:23:14.045Z,0.40
2022-12-31T04:25:40.757Z,0.50
2022-12-31T04:28:10.872Z,0.40
2022-12-31T04:30:37.532Z,0.50
2022-12-31T04:33:04.249Z,0.60
2022-12-31T04:35:30.967Z,0.50
2022-12-31T04:37:57.591Z,0.40
2022-12-31T04:40:24.229Z,0.55
2022-12-31T04:42:50.849Z,0.60
2022-12-31T04:45:17.659Z,0.45
2022-12-31T04:47:44.352Z,0.55
2022-12-31T04:50:11.045Z,0.40
2022-12-31T04:52:42.637Z,0.50
2022-12-31T04:55:09.956Z,0.40
2022-12-31T04:57:36.590Z,0.40
2022-12-31T05:00:04.039Z,0.47
2022-12-31T05:02:30.864Z,0.40
2022-12-31T05:04:57.832Z,0.60
2022-12-31T05:07:24.457Z,0.60
2022-12-31T05:09:51.470Z,0.50
2022-12-31T05:12:18.208Z,0.40
2022-12-31T05:14:44.887Z,0.30
2022-12-31T05:17:11.507Z,0.35
2022-12-31T05:19:38.463Z,0.40
2022-12-31T05:22:23.527Z,0.40
2022-12-31T05:24:52.154Z,0.40
2022-12-31T05:27:18.817Z,0.40
2022-12-31T05:29:45.541Z,0.80
2022-12-31T05:32:12.264Z,0.50
2022-12-31T05:34:39.019Z,0.57
2022-12-31T05:37:05.651Z,0.80
2022-12-31T05:39:32.359Z,0.40
2022-12-31T05:41:58.989Z,0.40
2022-12-31T05:44:25.658Z,0.57
2022-12-31T05:46:52.557Z,0.70
2022-12-31T05:49:19.211Z,1.30
2022-12-31T05:51:45.952Z,0.60
2022-12-31T05:54:12.689Z,2.22
2022-12-31T05:56:39.358Z,0.77
2022-12-31T05:59:06.030Z,1.00
2022-12-31T06:01:32.765Z,1.30
2022-12-31T06:04:00.389Z,0.70
2022-12-31T06:06:27.187Z,0.60
2022-12-31T06:08:54.394Z,0.80
2022-12-31T06:11:21.249Z,0.50
2022-12-31T06:13:47.940Z,0.70
2022-12-31T06:16:14.691Z,0.55
2022-12-31T06:18:41.631Z,0.60
2022-12-31T06:21:08.819Z,0.80
2022-12-31T06:23:35.552Z,0.40
2022-12-31T06:26:03.901Z,0.55
2022-12-31T06:28:30.806Z,0.50
2022-12-31T06:31:09.261Z,0.60
2022-12-31T06:33:36.861Z,0.50
2022-12-31T06:36:05.805Z,0.60
2022-12-31T06:38:34.849Z,0.50
2022-12-31T06:41:06.085Z,0.40
2022-12-31T06:43:33.864Z,0.50
2022-12-31T06:46:02.242Z,0.40
2022-12-31T06:48:28.965Z,0.50
2022-12-31T06:50:55.900Z,0.43
2022-12-31T06:53:22.687Z,0.40
2022-12-31T06:55:49.879Z,0.45
2022-12-31T06:58:17.322Z,0.50
2022-12-31T07:01:06.119Z,0.50
2022-12-31T07:04:11.237Z,0.50
2022-12-31T07:06:50.181Z,0.85
2022-12-31T07:09:26.210Z,0.60
2022-12-31T07:12:02.252Z,0.60
2022-12-31T07:15:08.185Z,0.60
2022-12-31T07:17:58.878Z,0.40
2022-12-31T07:20:25.951Z,0.60
2022-12-31T07:22:52.921Z,0.52
2022-12-31T07:25:20.571Z,0.70
2022-12-31T07:28:18.147Z,0.40
2022-12-31T07:31:03.141Z,0.38
2022-12-31T07:33:39.017Z,0.60
2022-12-31T07:36:27.111Z,0.60
2022-12-31T07:39:01.868Z,0.77
2022-12-31T07:41:41.219Z,0.90
2022-12-31T07:44:35.967Z,0.40
2022-12-31T07:47:05.461Z,0.50
2022-12-31T07:49:33.903Z,0.80
2022-12-31T07:52:02.241Z,0.70
2022-12-31T07:54:28.921Z,0.80
2022-12-31T07:56:55.639Z,0.50
2022-12-31T07:59:41.333Z,0.85
2022-12-31T08:02:23.258Z,0.70
2022-12-31T08:05:17.311Z,0.90
2022-12-31T08:08:06.637Z,0.50
2022-12-31T08:10:48.442Z,0.40
2022-12-31T08:13:17.151Z,0.77
2022-12-31T08:15:44.208Z,0.70
2022-12-31T08:18:11.200Z,0.77
2022-12-31T08:21:07.336Z,0.70
2022-12-31T08:23:45.056Z,0.80
2022-12-31T08:26:27.345Z,0.60
2022-12-31T08:29:06.241Z,0.68
2022-12-31T08:31:38.922Z,0.70
2022-12-31T08:34:06.406Z,0.70
2022-12-31T08:36:40.483Z,0.77
2022-12-31T08:39:32.011Z,0.60
2022-12-31T08:42:00.331Z,0.70
2022-12-31T08:44:39.214Z,0.57
2022-12-31T08:47:12.628Z,0.50
2022-12-31T08:49:39.547Z,0.40
2022-12-31T08:52:16.198Z,0.50
2022-12-31T08:54:43.044Z,0.50
2022-12-31T08:57:09.636Z,0.70
2022-12-31T09:00:01.996Z,0.57
2022-12-31T09:05:32.119Z,0.68
2022-12-31T09:08:13.956Z,0.70
2022-12-31T09:10:58.656Z,0.60
2022-12-31T09:13:40.574Z,0.57
2022-12-31T09:16:25.320Z,0.90
2022-12-31T09:18:52.012Z,1.02
2022-12-31T09:21:18.915Z,0.60
2022-12-31T09:23:46.076Z,1.10
2022-12-31T09:26:47.911Z,1.25
2022-12-31T09:29:36.338Z,1.10
2022-12-31T09:32:33.920Z,1.30
2022-12-31T09:35:39.492Z,0.90
2022-12-31T09:38:28.939Z,0.80
2022-12-31T09:41:13.496Z,0.77
2022-12-31T09:44:02.011Z,0.95
2022-12-31T09:47:06.386Z,0.85
2022-12-31T09:50:04.750Z,1.30
2022-12-31T09:53:16.306Z,0.80
2022-12-31T09:56:04.883Z,1.38
2022-12-31T09:58:31.538Z,1.00
2022-12-31T10:01:11.509Z,1.10
2022-12-31T10:04:09.099Z,1.00
2022-12-31T10:07:01.992Z,1.30
2022-12-31T10:09:48.349Z,0.90
2022-12-31T10:12:36.063Z,1.02
2022-12-31T10:15:50.920Z,0.90
2022-12-31T10:18:17.497Z,0.60
2022-12-31T10:21:07.600Z,0.80
2022-12-31T10:24:11.856Z,0.65
2022-12-31T10:26:48.489Z,0.70
2022-12-31T10:29:31.128Z,0.70
2022-12-31T10:32:07.388Z,0.80
2022-12-31T10:34:55.708Z,1.25
2022-12-31T10:37:29.177Z,0.90
2022-12-31T10:39:55.810Z,0.90
2022-12-31T10:42:49.071Z,1.27
2022-12-31T10:45:27.848Z,0.70
2022-12-31T10:48:13.272Z,0.70
2022-12-31T10:51:04.411Z,0.60
2022-12-31T10:54:03.426Z,0.80
2022-12-31T10:57:07.071Z,0.50
2022-12-31T10:59:54.170Z,0.50
2022-12-31T11:02:50.164Z,0.63
2022-12-31T11:05:44.945Z,0.52
2022-12-31T11:08:20.885Z,0.50
2022-12-31T11:11:13.024Z,0.60
2022-12-31T11:13:54.923Z,0.63
2022-12-31T11:16:46.215Z,0.68
2022-12-31T11:19:18.951Z,0.80
2022-12-31T11:21:45.551Z,0.60
2022-12-31T11:24:37.192Z,0.50
2022-12-31T11:27:25.243Z,1.02
2022-12-31T11:30:19.270Z,1.42
2022-12-31T11:33:23.293Z,0.90
2022-12-31T11:36:02.165Z,1.35
2022-12-31T11:38:37.799Z,0.60
2022-12-31T11:41:41.619Z,1.17
2022-12-31T11:44:44.699Z,0.60
2022-12-31T11:48:20.127Z,0.50
2022-12-31T11:50:42.492Z,0.50
2022-12-31T11:53:36.818Z,0.60
2022-12-31T11:56:09.796Z,0.65
2022-12-31T11:58:36.483Z,0.63
2022-12-31T12:01:14.029Z,0.63
2022-12-31T12:03:43.760Z,0.77
2022-12-31T12:06:16.728Z,0.70
2022-12-31T12:08:44.835Z,0.60
2022-12-31T12:11:30.601Z,0.50
2022-12-31T12:13:57.459Z,0.70
2022-12-31T12:16:26.085Z,0.68
2022-12-31T12:19:17.949Z,0.47
2022-12-31T12:21:47.682Z,0.50
2022-12-31T12:24:30.936Z,0.80
2022-12-31T12:26:57.831Z,0.70
2022-12-31T12:29:29.642Z,0.90
2022-12-31T12:31:57.613Z,0.60
2022-12-31T12:34:28.217Z,0.60
2022-12-31T12:36:55.087Z,0.70
2022-12-31T12:39:31.199Z,0.88
2022-12-31T12:42:01.497Z,0.70
2022-12-31T12:44:28.193Z,0.55
2022-12-31T12:46:56.141Z,0.95
2022-12-31T12:49:27.136Z,0.70
2022-12-31T12:52:15.737Z,0.63
2022-12-31T12:55:09.931Z,0.70
2022-12-31T12:58:01.066Z,0.80
2022-12-31T13:00:41.109Z,0.77
2022-12-31T13:04:23.775Z,1.10
2022-12-31T13:06:53.104Z,1.38
2022-12-31T13:09:38.290Z,0.80
2022-12-31T13:13:22.685Z,0.60
2022-12-31T13:15:49.675Z,1.20
2022-12-31T13:18:48.955Z,0.80
2022-12-31T13:21:42.801Z,1.15
2022-12-31T13:24:15.566Z,0.90
2022-12-31T13:26:55.011Z,0.75
2022-12-31T13:29:27.726Z,0.70
2022-12-31T13:31:57.761Z,1.00
2022-12-31T13:34:30.568Z,0.80
2022-12-31T13:37:02.281Z,0.80
2022-12-31T13:39:32.452Z,0.93
2022-12-31T13:42:05.357Z,1.00
2022-12-31T13:44:41.705Z,1.00
2022-12-31T13:47:21.884Z,1.05
2022-12-31T13:50:22.410Z,1.20
2022-12-31T13:52:56.849Z,0.77
2022-12-31T13:55:38.581Z,1.20
2022-12-31T13:58:09.697Z,1.00
2022-12-31T14:00:36.354Z,1.20
2022-12-31T14:03:19.276Z,1.08
2022-12-31T14:05:58.949Z,0.90
2022-12-31T14:08:25.777Z,1.23
2022-12-31T14:11:22.052Z,1.88
2022-12-31T14:14:15.755Z,1.10
2022-12-31T14:16:53.228Z,0.85
2022-12-31T14:20:01.999Z,0.60
2022-12-31T14:22:55.211Z,0.73
2022-12-31T14:25:33.151Z,0.60
2022-12-31T14:28:03.242Z,0.88
2022-12-31T14:30:35.334Z,0.95
2022-12-31T14:35:55.852Z,1.00
2022-12-31T14:38:34.756Z,1.17
2022-12-31T14:41:35.627Z,1.40
2022-12-31T14:44:08.192Z,1.42
2022-12-31T14:46:37.915Z,1.02
2022-12-31T14:49:18.256Z,1.10
2022-12-31T14:51:44.984Z,1.10
2022-12-31T14:54:29.079Z,0.70
2022-12-31T14:56:55.983Z,1.08
2022-12-31T14:59:47.630Z,0.85
2022-12-31T15:02:30.702Z,1.65
2022-12-31T15:05:16.017Z,3.55
2022-12-31T15:07:48.812Z,2.35
2022-12-31T15:10:36.445Z,1.00
2022-12-31T15:13:14.065Z,0.90
2022-12-31T15:15:54.290Z,0.80
2022-12-31T15:18:23.998Z,0.90
2022-12-31T15:21:11.498Z,1.30
2022-12-31T15:23:40.239Z,1.50
2022-12-31T15:26:08.563Z,2.00
2022-12-31T15:28:40.087Z,1.88
2022-12-31T15:31:18.947Z,3.13
2022-12-31T15:34:01.824Z,2.72
2022-12-31T15:36:38.708Z,2.88
2022-12-31T15:39:11.675Z,2.25
2022-12-31T15:42:03.041Z,2.63
2022-12-31T15:44:55.292Z,10.48
2022-12-31T15:47:40.077Z,3.88
2022-12-31T15:50:15.366Z,2.80
2022-12-31T15:52:44.219Z,2.40
2022-12-31T15:55:46.651Z,2.30
2022-12-31T15:58:23.555Z,2.45
2022-12-31T16:01:10.133Z,2.70
2022-12-31T16:03:37.381Z,2.53
2022-12-31T16:06:10.809Z,2.88
2022-12-31T16:08:38.560Z,3.25
2022-12-31T16:11:08.040Z,6.70
2022-12-31T16:13:39.211Z,6.20
2022-12-31T16:16:18.744Z,5.47
2022-12-31T16:18:46.154Z,3.17
2022-12-31T16:21:32.903Z,8.50
2022-12-31T16:24:04.201Z,5.00
2022-12-31T16:26:42.525Z,4.15
2022-12-31T16:29:15.560Z,4.07
2022-12-31T16:31:44.905Z,4.90
2022-12-31T16:34:15.142Z,9.27
2022-12-31T16:36:42.525Z,7.93
2022-12-31T16:39:24.516Z,10.65
2022-12-31T16:41:53.709Z,18.90
2022-12-31T16:44:28.402Z,13.00
2022-12-31T16:47:00.747Z,10.57
2022-12-31T16:49:30.393Z,19.23
2022-12-31T16:52:02.425Z,29.27
2022-12-31T16:54:34.368Z,27.02
2022-12-31T16:57:02.082Z,11.80
2022-12-31T16:59:44.332Z,7.88
2022-12-31T17:02:33.685Z,5.45
2022-12-31T17:05:01.790Z,4.20
2022-12-31T17:07:31.495Z,7.57
2022-12-31T17:10:07.853Z,4.13
2022-12-31T17:13:24.898Z,3.67
2022-12-31T17:15:40.259Z,2.70
2022-12-31T17:18:08.046Z,2.53
2022-12-31T17:20:34.854Z,3.10
2022-12-31T17:23:05.557Z,2.58
2022-12-31T17:25:38.211Z,3.17
2022-12-31T17:28:22.240Z,3.20
2022-12-31T17:30:49.226Z,2.95
2022-12-31T17:33:21.953Z,3.05
2022-12-31T17:35:54.484Z,2.95
2022-12-31T17:38:21.066Z,2.78
2022-12-31T17:40:53.200Z,3.00
2022-12-31T17:45:51.113Z,5.13
2022-12-31T17:48:19.647Z,6.63
2022-12-31T17:50:48.225Z,6.93
2022-12-31T17:53:15.369Z,6.88
2022-12-31T17:55:47.923Z,5.18
2022-12-31T17:58:42.996Z,2.58
2022-12-31T18:01:12.004Z,2.72
2022-12-31T18:03:38.680Z,2.78
2022-12-31T18:06:05.541Z,2.28
2022-12-31T18:08:32.170Z,2.60
2022-12-31T18:10:58.927Z,2.20
2022-12-31T18:13:27.153Z,2.50
2022-12-31T18:15:54.719Z,1.88
2022-12-31T18:18:27.172Z,2.88
2022-12-31T18:20:57.607Z,3.05
2022-12-31T18:23:27.318Z,3.50
2022-12-31T18:25:54.254Z,10.95
2022-12-31T18:28:20.914Z,6.05
2022-12-31T18:30:48.330Z,3.42
2022-12-31T18:33:22.415Z,2.97
2022-12-31T18:36:08.223Z,3.58
2022-12-31T18:38:35.715Z,3.25
2022-12-31T18:41:02.474Z,3.60
2022-12-31T18:43:29.170Z,3.00
2022-12-31T18:45:55.899Z,3.20
2022-12-31T18:48:22.724Z,3.53
2022-12-31T18:50:50.356Z,2.60
2022-12-31T18:53:22.393Z,2.63
2022-12-31T18:55:50.793Z,1.83
2022-12-31T18:58:18.006Z,2.00
2022-12-31T19:00:44.832Z,1.73
2022-12-31T19:03:20.460Z,2.03
2022-12-31T19:05:49.871Z,1.50
2022-12-31T19:08:18.369Z,2.78
2022-12-31T19:10:46.214Z,2.25
2022-12-31T19:13:14.624Z,2.80
2022-12-31T19:15:48.993Z,3.50
2022-12-31T19:18:16.514Z,4.78
2022-12-31T19:20:43.397Z,3.50
2022-12-31T19:23:18.983Z,3.40
2022-12-31T19:25:46.812Z,5.35
2022-12-31T19:28:17.490Z,5.25
2022-12-31T19:30:45.174Z,13.80
2022-12-31T19:33:12.179Z,10.68
2022-12-31T19:35:40.063Z,6.95
2022-12-31T19:38:16.681Z,3.63
2022-12-31T19:40:43.532Z,2.78
2022-12-31T19:43:14.906Z,2.40
2022-12-31T19:45:43.135Z,1.70
2022-12-31T19:48:15.477Z,1.70
2022-12-31T19:53:18.306Z,1.83
2022-12-31T19:55:45.211Z,2.00
2022-12-31T19:58:25.526Z,3.53
2022-12-31T20:01:01.045Z,2.60
2022-12-31T20:03:29.043Z,1.58
2022-12-31T20:06:02.933Z,2.00
2022-12-31T20:08:29.651Z,5.53
2022-12-31T20:10:58.983Z,3.20
2022-12-31T20:13:27.011Z,3.70
2022-12-31T20:15:54.454Z,2.50
2022-12-31T20:18:22.980Z,2.67
2022-12-31T20:20:55.597Z,2.47
2022-12-31T20:23:22.921Z,2.88
2022-12-31T20:26:00.211Z,2.60
2022-12-31T20:28:27.596Z,2.60
2022-12-31T20:30:54.467Z,4.28
2022-12-31T20:33:21.313Z,3.38
2022-12-31T20:35:48.289Z,3.20
2022-12-31T20:38:14.921Z,3.90
2022-12-31T20:40:46.320Z,3.28
2022-12-31T20:43:13.515Z,5.20
2022-12-31T20:45:41.173Z,3.90
2022-12-31T20:48:07.936Z,3.92
2022-12-31T20:50:34.607Z,3.88
2022-12-31T20:53:02.051Z,5.63
2022-12-31T20:55:30.796Z,7.03
2022-12-31T20:57:57.506Z,7.63
2022-12-31T21:00:24.217Z,8.35
2022-12-31T21:02:59.029Z,3.83
2022-12-31T21:05:31.356Z,3.63
2022-12-31T21:07:58.574Z,3.53
2022-12-31T21:10:25.275Z,3.75
2022-12-31T21:12:54.699Z,4.70
2022-12-31T21:15:21.782Z,3.42
2022-12-31T21:17:48.485Z,2.53
2022-12-31T21:20:15.227Z,2.20
2022-12-31T21:22:41.940Z,1.77
2022-12-31T21:25:10.526Z,1.20
2022-12-31T21:27:37.234Z,1.20
2022-12-31T21:30:20.591Z,1.10
2022-12-31T21:32:48.107Z,1.30
2022-12-31T21:38:02.264Z,1.85
2022-12-31T21:40:30.000Z,3.13
2022-12-31T21:42:57.053Z,3.80
2022-12-31T21:45:23.964Z,9.13
2022-12-31T21:48:09.360Z,8.40
2022-12-31T21:50:36.166Z,1.98
2022-12-31T21:53:02.863Z,3.25
2022-12-31T21:55:48.273Z,2.17
2022-12-31T21:58:31.759Z,2.28
2022-12-31T22:01:17.982Z,1.40
2022-12-31T22:03:45.319Z,1.60
2022-12-31T22:06:13.618Z,1.40
2022-12-31T22:08:41.909Z,2.08
2022-12-31T22:11:09.616Z,2.03
2022-12-31T22:13:36.986Z,2.17
2022-12-31T22:16:05.554Z,1.58
2022-12-31T22:18:39.104Z,1.77
2022-12-31T22:21:07.678Z,1.30
2022-12-31T22:23:37.107Z,1.98
2022-12-31T22:26:05.901Z,2.10
2022-12-31T22:28:38.804Z,1.23
2022-12-31T22:31:08.081Z,1.27
2022-12-31T22:33:34.849Z,1.40
2022-12-31T22:36:06.662Z,1.75
2022-12-31T22:38:34.140Z,1.50
2022-12-31T22:41:03.339Z,2.05
2022-12-31T22:43:34.510Z,1.98
2022-12-31T22:46:21.845Z,1.70
2022-12-31T22:48:49.192Z,1.50
2022-12-31T22:51:16.376Z,1.20
2022-12-31T22:53:43.822Z,1.50
2022-12-31T22:56:13.714Z,1.30
2022-12-31T22:58:40.705Z,1.15
2022-12-31T23:01:15.577Z,3.70
2022-12-31T23:03:42.690Z,22.63
2022-12-31T23:06:09.455Z,38.10
2022-12-31T23:08:36.164Z,34.70
2022-12-31T23:11:05.996Z,38.88
2022-12-31T23:13:59.652Z,36.33
2022-12-31T23:16:48.034Z,25.55
2022-12-31T23:19:34.504Z,19.30
2022-12-31T23:22:19.737Z,12.90
2022-12-31T23:24:46.389Z,7.60
2022-12-31T23:27:13.259Z,5.15
2022-12-31T23:29:46.831Z,2.85
2022-12-31T23:32:18.206Z,2.00
2022-12-31T23:34:45.995Z,4.13
2022-12-31T23:37:13.835Z,5.18
2022-12-31T23:39:40.960Z,5.05
2022-12-31T23:42:07.840Z,5.32
2022-12-31T23:44:34.529Z,6.45
2022-12-31T23:47:01.236Z,7.10
2022-12-31T23:49:27.959Z,7.47
2022-12-31T23:51:54.607Z,8.95
2022-12-31T23:54:21.565Z,8.20
2022-12-31T23:56:49.038Z,9.50
2022-12-31T23:59:15.705Z,8.18
